KCEY/CEY METAR and TAF weather

Enter ICAO airport designator
Station Type Date Time Source
KCEY METAR 2020/02/16 19:55 UTC NOAA

KCEY 161955Z AUTO 27006KT 10SM CLR 13/02 A3006 RMK AO1


Station Type Date Time Source
KCEY Decoded METAR 2020/02/16 19:55 UTC NOAA

Station name not available
Feb 16, 2020 - 02:55 PM EST / 2020.02.16 1955 UTC
Wind: from the W (270 degrees) at 7 MPH (6 KT):0
Visibility: 10 mile(s):0
Sky conditions: clear
Temperature: 55 F (13 C)
Dew Point: 35 F (2 C)
Relative Humidity: 47%
Pressure (altimeter): 30.06 in. Hg (1017 hPa)
ob: KCEY 161955Z AUTO 27006KT 10SM CLR 13/02 A3006 RMK AO1
cycle: 20

Station Type Date Time Source
KCEY TAF UTC NOAA

Error!

Example: see airport list